Time;durP1;ratioP1;P1;durP2;ratioP2;P2;SDS_P1;SDS_P2;PMS_P1;PMS_P2;Temp;Humidity;BMP_temperature;BMP_pressure;BME280_temperature;BME280_humidity;BME280_pressure;Samples;Min_cycle;Max_cycle;Signal;HPM_P1;HPM_P2
2022/02/27 00:01:31;;;;;;;7.83;5.90;;;4.40;76.90;;;;;;5019641;28;20484;-48
2022/02/27 00:03:57;;;;;;;12.70;6.73;;;4.40;76.90;;;;;;5016554;28;20448;-48
2022/02/27 00:06:24;;;;;;;8.03;5.93;;;4.40;77.00;;;;;;5016034;28;21014;-48
2022/02/27 00:08:51;;;;;;;8.07;6.27;;;4.40;77.00;;;;;;5016331;28;20452;-48
2022/02/27 00:11:18;;;;;;;8.33;6.67;;;4.40;77.10;;;;;;5020190;28;20456;-48
2022/02/27 00:13:45;;;;;;;7.27;5.93;;;4.40;77.30;;;;;;5019857;28;20546;-48
2022/02/27 00:16:11;;;;;;;7.67;6.30;;;4.40;77.30;;;;;;5022238;28;20461;-48
2022/02/27 00:18:38;;;;;;;8.23;5.97;;;4.40;77.40;;;;;;5033925;28;20451;-48
2022/02/27 00:21:05;;;;;;;8.93;5.90;;;4.40;77.40;;;;;;5021343;28;20487;-48
2022/02/27 00:23:32;;;;;;;12.73;6.97;;;4.40;77.40;;;;;;5019135;28;20479;-51
2022/02/27 00:25:59;;;;;;;7.57;6.13;;;4.50;77.30;;;;;;5020062;28;20499;-51
2022/02/27 00:28:25;;;;;;;11.43;6.33;;;4.50;77.10;;;;;;5019755;28;21009;-51
2022/02/27 00:30:52;;;;;;;9.90;7.00;;;4.60;76.90;;;;;;5018654;28;20548;-52
2022/02/27 00:33:19;;;;;;;10.30;6.27;;;4.60;76.80;;;;;;5018162;28;20579;-51
2022/02/27 00:35:46;;;;;;;7.50;5.47;;;4.60;76.70;;;;;;5016752;28;20460;-51
2022/02/27 00:38:13;;;;;;;14.57;5.77;;;4.60;76.40;;;;;;5018223;28;20543;-51
2022/02/27 00:40:40;;;;;;;10.10;6.37;;;4.60;76.30;;;;;;5018237;28;20451;-51
2022/02/27 00:43:06;;;;;;;12.67;7.60;;;4.60;76.30;;;;;;5016812;28;20583;-51
2022/02/27 00:45:33;;;;;;;11.77;6.73;;;4.60;76.40;;;;;;5022805;28;20478;-51
2022/02/27 00:48:00;;;;;;;11.13;6.43;;;4.60;76.30;;;;;;5023189;28;20558;-51
2022/02/27 00:50:27;;;;;;;11.47;6.97;;;4.60;76.40;;;;;;5021736;28;20461;-51
2022/02/27 00:52:54;;;;;;;11.67;6.57;;;4.60;76.50;;;;;;5021234;28;20474;-51
2022/02/27 00:55:23;;;;;;;7.73;5.90;;;4.60;76.60;;;;;;5021418;28;21052;-51
2022/02/27 00:57:50;;;;;;;14.70;6.93;;;4.60;76.60;;;;;;5020434;28;20526;-51
2022/02/27 01:00:17;;;;;;;9.30;6.47;;;4.60;76.60;;;;;;5023587;28;20468;-50
2022/02/27 01:02:44;;;;;;;12.90;7.10;;;4.60;76.80;;;;;;5021669;28;20875;-51
2022/02/27 01:05:11;;;;;;;12.27;6.40;;;4.60;76.90;;;;;;5024038;28;20474;-51
2022/02/27 01:07:38;;;;;;;13.53;7.17;;;4.60;76.70;;;;;;5019528;28;21038;-51
2022/02/27 01:10:06;;;;;;;14.20;7.13;;;4.60;76.60;;;;;;5021999;28;20461;-51
2022/02/27 01:12:32;;;;;;;8.90;6.23;;;4.60;76.80;;;;;;5007326;28;20948;-51
2022/02/27 01:14:59;;;;;;;9.37;6.50;;;4.70;76.60;;;;;;5022786;28;20486;-50
2022/02/27 01:17:29;;;;;;;13.30;6.50;;;4.70;76.50;;;;;;5026260;28;20462;-51
2022/02/27 01:19:55;;;;;;;15.50;6.40;;;4.60;76.60;;;;;;5018699;28;21032;-51
2022/02/27 01:22:22;;;;;;;9.57;6.23;;;4.60;76.60;;;;;;5024528;28;20583;-51
2022/02/27 01:24:49;;;;;;;8.10;6.37;;;4.70;76.40;;;;;;5017897;28;20977;-51
2022/02/27 01:27:17;;;;;;;12.00;6.80;;;4.70;76.40;;;;;;5021954;28;20835;-51
2022/02/27 01:29:44;;;;;;;9.10;6.33;;;4.70;76.40;;;;;;5008574;28;20537;-51
2022/02/27 01:32:11;;;;;;;10.23;6.80;;;4.70;76.20;;;;;;5020636;28;20459;-51
2022/02/27 01:34:38;;;;;;;12.47;6.50;;;4.70;76.20;;;;;;5020682;28;20891;-51
2022/02/27 01:37:05;;;;;;;9.13;6.30;;;4.70;76.10;;;;;;5023246;28;20455;-51
2022/02/27 01:39:35;;;;;;;11.20;6.50;;;4.70;76.00;;;;;;5022583;28;20468;-51
2022/02/27 01:42:02;;;;;;;9.73;5.40;;;4.60;75.80;;;;;;5024389;28;20494;-51
2022/02/27 01:44:28;;;;;;;10.10;6.57;;;4.60;76.00;;;;;;5009928;28;20459;-51
2022/02/27 01:47:04;;;;;;;10.73;7.10;;;4.50;76.10;;;;;;5024165;28;20475;-51
2022/02/27 01:49:31;;;;;;;13.50;6.83;;;4.50;76.40;;;;;;5021133;28;20455;-51
2022/02/27 01:52:00;;;;;;;14.77;6.17;;;4.50;76.30;;;;;;5019625;28;20482;-51
2022/02/27 01:54:29;;;;;;;9.87;6.37;;;4.50;76.20;;;;;;5007908;28;20542;-51
2022/02/27 01:56:56;;;;;;;8.17;6.50;;;4.50;76.20;;;;;;5023105;28;20475;-51
2022/02/27 01:59:23;;;;;;;10.37;6.07;;;4.40;76.30;;;;;;5018269;28;20983;-51
2022/02/27 02:01:50;;;;;;;8.37;6.03;;;4.40;76.30;;;;;;5011513;28;20499;-51
2022/02/27 02:04:17;;;;;;;10.50;6.03;;;4.30;76.30;;;;;;5022987;28;20446;-51
2022/02/27 02:06:45;;;;;;;10.03;6.57;;;4.30;76.30;;;;;;5025011;28;20457;-51
2022/02/27 02:09:11;;;;;;;14.77;7.53;;;4.20;76.40;;;;;;5020766;28;20936;-51
2022/02/27 02:11:39;;;;;;;9.20;6.27;;;4.20;76.60;;;;;;5021874;28;20546;-51
2022/02/27 02:14:06;;;;;;;8.10;6.90;;;4.20;76.60;;;;;;5027356;28;20551;-51
2022/02/27 02:16:42;;;;;;;11.30;6.57;;;4.10;76.60;;;;;;5018977;28;20554;-51
2022/02/27 02:19:09;;;;;;;11.07;6.17;;;4.10;76.60;;;;;;5025442;28;20789;-51
2022/02/27 02:21:37;;;;;;;16.63;6.30;;;4.10;76.70;;;;;;5033060;28;20491;-52
2022/02/27 02:24:04;;;;;;;7.67;5.80;;;4.00;76.80;;;;;;5025798;28;21040;-51
2022/02/27 02:26:31;;;;;;;10.67;7.20;;;3.90;77.00;;;;;;5022415;28;20471;-51
2022/02/27 02:28:58;;;;;;;11.53;6.57;;;3.90;77.10;;;;;;5025374;28;20466;-52
2022/02/27 02:31:25;;;;;;;15.90;6.47;;;3.90;77.30;;;;;;5025498;28;20464;-52
2022/02/27 02:33:52;;;;;;;11.70;6.53;;;3.90;77.50;;;;;;5021101;28;20890;-51
2022/02/27 02:36:19;;;;;;;11.37;5.60;;;3.80;77.50;;;;;;5021440;28;20583;-51
2022/02/27 02:38:45;;;;;;;7.90;5.97;;;3.80;77.60;;;;;;5019773;28;20456;-51
2022/02/27 02:41:12;;;;;;;10.60;6.13;;;3.80;77.60;;;;;;5023159;28;20455;-51
2022/02/27 02:43:39;;;;;;;8.00;5.93;;;3.70;77.60;;;;;;5023927;28;21071;-51
2022/02/27 02:46:05;;;;;;;13.10;6.47;;;3.70;77.80;;;;;;5009662;28;20466;-51
2022/02/27 02:48:32;;;;;;;10.80;6.10;;;3.70;77.80;;;;;;5018816;28;20502;-51
2022/02/27 02:50:59;;;;;;;10.23;7.03;;;3.70;77.90;;;;;;5021559;28;20463;-51
2022/02/27 02:53:37;;;;;;;17.03;6.17;;;3.70;78.00;;;;;;5009690;28;21002;-51
2022/02/27 02:56:08;;;;;;;10.40;6.17;;;3.70;77.80;;;;;;5019082;28;20918;-51
2022/02/27 02:58:39;;;;;;;11.83;5.70;;;3.80;77.60;;;;;;5013670;28;20474;-51
2022/02/27 03:01:07;;;;;;;9.23;5.97;;;3.70;77.60;;;;;;5036444;28;20468;-51
2022/02/27 03:03:36;;;;;;;10.20;6.33;;;3.70;77.60;;;;;;5022134;28;20482;-52
2022/02/27 03:06:03;;;;;;;7.80;5.90;;;3.70;77.50;;;;;;5009560;28;20465;-51
2022/02/27 03:08:30;;;;;;;10.10;6.07;;;3.70;77.60;;;;;;5030603;28;20540;-51
2022/02/27 03:10:58;;;;;;;13.07;6.20;;;3.70;77.60;;;;;;5029767;28;20485;-50
2022/02/27 03:13:25;;;;;;;7.00;5.23;;;3.60;77.60;;;;;;5030107;28;20516;-50
2022/02/27 03:15:52;;;;;;;10.23;6.00;;;3.60;77.70;;;;;;5028906;28;20460;-50
2022/02/27 03:18:19;;;;;;;7.57;5.17;;;3.50;77.80;;;;;;5029609;28;20459;-50
2022/02/27 03:20:46;;;;;;;6.80;5.13;;;3.50;78.00;;;;;;5032937;28;20468;-50
2022/02/27 03:23:13;;;;;;;8.00;5.40;;;3.50;77.90;;;;;;5031722;28;20499;-50
2022/02/27 03:25:40;;;;;;;9.43;5.00;;;3.50;77.90;;;;;;5026360;28;20529;-50
2022/02/27 03:28:07;;;;;;;9.73;5.93;;;3.40;78.00;;;;;;5044969;28;20478;-50
2022/02/27 03:30:36;;;;;;;7.90;4.63;;;3.40;78.00;;;;;;5029904;28;20459;-50
2022/02/27 03:33:04;;;;;;;9.13;4.90;;;3.40;78.20;;;;;;5027045;28;20529;-50
2022/02/27 03:35:31;;;;;;;10.70;5.80;;;3.40;78.40;;;;;;5028749;28;20519;-50
2022/02/27 03:37:58;;;;;;;11.60;4.90;;;3.30;78.50;;;;;;5031959;28;20467;-50
2022/02/27 03:40:25;;;;;;;6.80;4.77;;;3.40;78.50;;;;;;5023804;28;20509;-50
2022/02/27 03:42:53;;;;;;;8.00;4.87;;;3.40;78.40;;;;;;5047034;28;21087;-50
2022/02/27 03:45:20;;;;;;;9.83;5.07;;;3.40;78.30;;;;;;5032654;28;20483;-50
2022/02/27 03:47:47;;;;;;;6.40;5.17;;;3.40;78.40;;;;;;5011559;28;20475;-50
2022/02/27 03:50:17;;;;;;;10.37;4.30;;;3.40;78.20;;;;;;5030697;28;20525;-50
2022/02/27 03:52:44;;;;;;;8.83;4.47;;;3.40;78.30;;;;;;5030379;28;20543;-51
2022/02/27 03:55:13;;;;;;;5.23;4.13;;;3.40;78.20;;;;;;5031579;28;20457;-51
2022/02/27 03:57:40;;;;;;;4.20;3.67;;;3.40;78.20;;;;;;5028878;28;20549;-50
2022/02/27 04:00:10;;;;;;;5.00;4.17;;;3.40;78.30;;;;;;5032104;28;20465;-51
2022/02/27 04:02:36;;;;;;;5.53;4.60;;;3.30;78.30;;;;;;5030972;28;20522;-50
2022/02/27 04:05:04;;;;;;;10.97;4.00;;;3.30;78.30;;;;;;5035127;28;20509;-50
2022/02/27 04:07:31;;;;;;;5.57;4.50;;;3.30;78.20;;;;;;5026476;28;20468;-50
2022/02/27 04:09:58;;;;;;;13.10;5.40;;;3.40;78.10;;;;;;5032726;28;20831;-51
2022/02/27 04:12:24;;;;;;;10.17;3.87;;;3.40;77.90;;;;;;5025716;28;20861;-51
2022/02/27 04:14:51;;;;;;;6.90;4.37;;;3.40;78.20;;;;;;5025331;28;20486;-51
2022/02/27 04:17:18;;;;;;;6.83;4.03;;;3.40;77.90;;;;;;5028231;28;20451;-51
2022/02/27 04:19:45;;;;;;;6.83;4.03;;;3.40;78.00;;;;;;5029487;28;20467;-51
2022/02/27 04:22:12;;;;;;;9.00;3.90;;;3.40;78.00;;;;;;5030983;28;20491;-51
2022/02/27 04:24:39;;;;;;;7.60;3.53;;;3.30;78.00;;;;;;5028486;28;20916;-51
2022/02/27 04:27:05;;;;;;;6.73;4.20;;;3.30;78.10;;;;;;5033691;28;20482;-51
2022/02/27 04:29:32;;;;;;;5.77;4.80;;;3.30;78.00;;;;;;5048307;28;20504;-51
2022/02/27 04:31:59;;;;;;;34.07;5.30;;;3.30;78.00;;;;;;5036329;28;21054;-51
2022/02/27 04:34:26;;;;;;;14.83;4.90;;;3.30;77.90;;;;;;5033924;28;20463;-51
2022/02/27 04:36:53;;;;;;;4.60;3.73;;;3.30;78.00;;;;;;5036937;28;20455;-51
2022/02/27 04:39:20;;;;;;;10.03;4.00;;;3.30;77.90;;;;;;5029184;28;20467;-51
2022/02/27 04:41:46;;;;;;;7.13;3.63;;;3.30;77.90;;;;;;5035134;28;20904;-51
2022/02/27 04:44:13;;;;;;;9.17;4.33;;;3.30;77.90;;;;;;5046681;28;20471;-51
2022/02/27 04:46:40;;;;;;;8.47;4.50;;;3.30;77.90;;;;;;5048533;28;20463;-51
2022/02/27 04:49:06;;;;;;;7.30;3.93;;;3.30;77.80;;;;;;5032346;28;20460;-51
2022/02/27 04:51:33;;;;;;;6.17;4.07;;;3.30;77.80;;;;;;5035207;28;20797;-51
2022/02/27 04:54:00;;;;;;;6.70;3.27;;;3.30;77.70;;;;;;5029346;28;20486;-51
2022/02/27 04:56:27;;;;;;;6.10;3.67;;;3.30;77.60;;;;;;5021970;28;20460;-51
2022/02/27 04:58:53;;;;;;;6.23;3.57;;;3.30;77.60;;;;;;5033725;28;20470;-50
2022/02/27 05:01:20;;;;;;;4.10;3.20;;;3.40;77.30;;;;;;5031206;28;20452;-51
2022/02/27 05:03:47;;;;;;;6.53;3.87;;;3.30;77.30;;;;;;5036613;28;20479;-51
2022/02/27 05:06:14;;;;;;;9.70;4.37;;;3.30;77.20;;;;;;5032114;28;20499;-51
2022/02/27 05:08:41;;;;;;;8.23;3.80;;;3.30;77.30;;;;;;5032049;28;20551;-51
2022/02/27 05:11:08;;;;;;;9.43;3.93;;;3.30;77.20;;;;;;5048728;28;21163;-51
2022/02/27 05:13:34;;;;;;;6.47;4.33;;;3.30;77.10;;;;;;5033545;28;20506;-51
2022/02/27 05:16:01;;;;;;;7.53;2.67;;;3.20;77.10;;;;;;5032618;28;20455;-51
2022/02/27 05:18:28;;;;;;;6.07;3.80;;;3.20;77.00;;;;;;5035170;28;20486;-50
2022/02/27 05:20:54;;;;;;;6.50;4.17;;;3.20;77.10;;;;;;5033833;28;20464;-51
2022/02/27 05:23:21;;;;;;;4.57;3.53;;;3.20;77.20;;;;;;5034586;28;20635;-51
2022/02/27 05:25:48;;;;;;;13.77;4.90;;;3.10;77.10;;;;;;5035852;28;20531;-50
2022/02/27 05:28:15;;;;;;;5.87;3.73;;;3.10;77.10;;;;;;5033966;28;20892;-51
2022/02/27 05:30:43;;;;;;;5.80;3.87;;;3.00;77.20;;;;;;5038017;28;20523;-51
2022/02/27 05:33:14;;;;;;;8.17;4.10;;;3.00;77.30;;;;;;5033509;28;20463;-51
2022/02/27 05:35:41;;;;;;;7.80;3.97;;;3.00;77.30;;;;;;5032769;28;20472;-51
2022/02/27 05:38:08;;;;;;;7.03;4.23;;;2.90;77.40;;;;;;5022745;28;20460;-49
2022/02/27 05:40:34;;;;;;;4.27;3.87;;;2.90;77.60;;;;;;5031943;28;20953;-50
2022/02/27 05:43:01;;;;;;;8.07;4.17;;;2.80;77.70;;;;;;5034325;28;20492;-50
2022/02/27 05:45:28;;;;;;;6.30;3.67;;;2.80;77.90;;;;;;5026876;28;20465;-50
2022/02/27 05:47:55;;;;;;;6.30;3.30;;;2.80;77.90;;;;;;5033071;28;20543;-50
2022/02/27 05:50:22;;;;;;;11.43;4.30;;;2.70;77.90;;;;;;5034313;28;20464;-50
2022/02/27 05:52:49;;;;;;;6.07;4.03;;;2.80;78.00;;;;;;5036160;28;20455;-49
2022/02/27 05:55:16;;;;;;;8.37;6.37;;;2.80;77.90;;;;;;5030927;28;20456;-50
2022/02/27 05:57:43;;;;;;;3.60;3.00;;;2.80;77.80;;;;;;5032312;28;20487;-50
2022/02/27 06:00:10;;;;;;;4.57;3.10;;;2.80;77.90;;;;;;5032064;28;20452;-50
2022/02/27 06:02:37;;;;;;;7.53;3.40;;;2.80;78.10;;;;;;5036895;28;20480;-50
2022/02/27 06:05:05;;;;;;;10.03;3.40;;;2.80;77.90;;;;;;5033086;28;21427;-50
2022/02/27 06:07:32;;;;;;;6.47;4.23;;;2.80;77.90;;;;;;5013292;28;20449;-50
2022/02/27 06:09:59;;;;;;;7.33;3.97;;;2.70;77.90;;;;;;5020613;28;20944;-50
2022/02/27 06:12:27;;;;;;;5.37;3.87;;;2.70;78.10;;;;;;5033096;28;20536;-50
2022/02/27 06:14:56;;;;;;;11.20;5.23;;;2.70;78.20;;;;;;5038211;28;20444;-50
2022/02/27 06:17:23;;;;;;;9.30;4.80;;;2.70;78.20;;;;;;5032357;28;20522;-52
2022/02/27 06:19:50;;;;;;;6.47;4.47;;;2.70;78.10;;;;;;5034982;28;20501;-49
2022/02/27 06:22:17;;;;;;;7.87;3.60;;;2.70;78.10;;;;;;5026626;28;20558;-50
2022/02/27 06:24:44;;;;;;;7.97;3.77;;;2.70;78.10;;;;;;5034559;28;20949;-50
2022/02/27 06:27:11;;;;;;;8.33;4.57;;;2.70;78.10;;;;;;5034657;28;20455;-50
2022/02/27 06:29:37;;;;;;;8.87;5.37;;;2.70;78.00;;;;;;5034362;28;20528;-50
2022/02/27 06:32:08;;;;;;;7.73;4.50;;;2.70;77.90;;;;;;5031292;28;20456;-50
2022/02/27 06:34:35;;;;;;;6.13;4.47;;;2.70;78.00;;;;;;5030513;28;20574;-50
2022/02/27 06:37:03;;;;;;;9.60;3.83;;;2.70;77.90;;;;;;5036255;28;20467;-50
2022/02/27 06:39:29;;;;;;;6.70;4.23;;;2.70;78.00;;;;;;5030967;28;20466;-50
2022/02/27 06:41:56;;;;;;;9.27;4.40;;;2.70;77.90;;;;;;5036878;28;20502;-49
2022/02/27 06:44:23;;;;;;;8.37;4.80;;;2.70;77.90;;;;;;5016391;28;20487;-49
2022/02/27 06:46:50;;;;;;;5.87;4.13;;;2.70;77.80;;;;;;5017259;28;20472;-50
2022/02/27 06:49:16;;;;;;;8.70;5.20;;;2.70;77.80;;;;;;5019632;28;20846;-50
2022/02/27 06:51:43;;;;;;;6.53;4.73;;;2.70;77.70;;;;;;5017846;28;20475;-50
2022/02/27 06:54:10;;;;;;;9.60;5.03;;;2.80;77.60;;;;;;5029420;28;20476;-50
2022/02/27 06:56:37;;;;;;;7.03;5.00;;;2.80;77.50;;;;;;5032749;28;20468;-50
2022/02/27 06:59:03;;;;;;;7.60;5.20;;;2.90;77.60;;;;;;5045741;28;20463;-50
2022/02/27 07:01:30;;;;;;;6.97;4.17;;;2.90;77.50;;;;;;5034011;28;20464;-50
2022/02/27 07:03:57;;;;;;;6.53;4.83;;;2.90;77.50;;;;;;5028169;28;20490;-50
2022/02/27 07:06:24;;;;;;;5.50;4.73;;;2.90;77.60;;;;;;5028746;28;20503;-50
2022/02/27 07:08:51;;;;;;;7.17;3.27;;;2.90;77.60;;;;;;5030551;28;20469;-50
2022/02/27 07:11:18;;;;;;;7.27;4.50;;;2.90;77.60;;;;;;5038482;28;20530;-50
2022/02/27 07:13:49;;;;;;;7.03;5.60;;;2.90;77.60;;;;;;5015413;28;20464;-50
2022/02/27 07:16:22;;;;;;;8.03;4.40;;;2.90;77.60;;;;;;5014107;28;20483;-50
2022/02/27 07:18:50;;;;;;;6.70;4.50;;;2.90;77.60;;;;;;5031452;28;20467;-50
2022/02/27 07:21:17;;;;;;;10.83;5.00;;;2.90;77.50;;;;;;5025615;28;20987;-50
2022/02/27 07:23:44;;;;;;;6.53;4.40;;;3.00;77.50;;;;;;5010813;28;20493;-50
2022/02/27 07:26:11;;;;;;;6.60;4.97;;;3.00;77.40;;;;;;5029866;28;20792;-50
2022/02/27 07:28:38;;;;;;;8.90;6.20;;;3.00;77.40;;;;;;5025888;28;20528;-50
2022/02/27 07:31:05;;;;;;;8.33;4.80;;;3.00;77.40;;;;;;5035016;28;20447;-50
2022/02/27 07:33:32;;;;;;;7.77;4.67;;;3.00;77.60;;;;;;5029675;28;20515;-50
2022/02/27 07:35:58;;;;;;;7.80;5.20;;;3.10;77.50;;;;;;5035045;28;20459;-50
2022/02/27 07:38:25;;;;;;;7.07;4.57;;;3.10;77.20;;;;;;5024228;28;20490;-50
2022/02/27 07:40:52;;;;;;;7.97;5.27;;;3.10;77.40;;;;;;5034230;28;20454;-50
2022/02/27 07:43:19;;;;;;;8.57;5.90;;;3.10;77.30;;;;;;5040843;28;20948;-50
2022/02/27 07:45:46;;;;;;;7.33;4.90;;;3.20;77.40;;;;;;5040552;28;20459;-50
2022/02/27 07:48:13;;;;;;;11.03;5.10;;;3.20;77.20;;;;;;5039031;28;20435;-50
2022/02/27 07:50:40;;;;;;;8.13;5.67;;;3.20;77.30;;;;;;5037860;28;20463;-50
2022/02/27 07:53:07;;;;;;;9.97;6.53;;;3.20;77.40;;;;;;5037459;28;20457;-50
2022/02/27 07:55:34;;;;;;;12.17;6.07;;;3.20;77.60;;;;;;5042180;28;20517;-50
2022/02/27 07:58:01;;;;;;;10.53;4.90;;;3.30;77.50;;;;;;5037107;28;20477;-50
2022/02/27 08:00:27;;;;;;;9.23;5.30;;;3.30;77.50;;;;;;5040942;28;20752;-50
2022/02/27 08:02:54;;;;;;;10.10;6.23;;;3.40;77.50;;;;;;5041375;28;20450;-50
2022/02/27 08:05:22;;;;;;;8.00;4.67;;;3.50;77.30;;;;;;5023734;28;20452;-50
2022/02/27 08:07:49;;;;;;;12.43;5.97;;;3.50;77.10;;;;;;5037709;28;20448;-50
2022/02/27 08:10:15;;;;;;;14.03;5.50;;;3.60;77.00;;;;;;5036369;28;20502;-50
2022/02/27 08:12:45;;;;;;;17.07;5.90;;;3.60;77.00;;;;;;5027638;28;20458;-50
2022/02/27 08:15:14;;;;;;;9.10;5.63;;;3.70;77.00;;;;;;5035203;28;20929;-50
2022/02/27 08:17:41;;;;;;;9.03;5.43;;;3.80;76.70;;;;;;5035366;28;20552;-50
2022/02/27 08:20:09;;;;;;;10.87;5.10;;;3.90;76.70;;;;;;5029179;28;20517;-50
2022/02/27 08:22:37;;;;;;;9.17;5.77;;;4.00;76.60;;;;;;5021519;28;20466;-50
2022/02/27 08:25:05;;;;;;;10.20;6.40;;;4.10;75.90;;;;;;5029470;28;20487;-50
2022/02/27 08:27:34;;;;;;;11.03;5.83;;;4.20;75.80;;;;;;5034226;28;20469;-50
2022/02/27 08:30:01;;;;;;;10.60;5.20;;;4.40;75.20;;;;;;5029685;28;20451;-50
2022/02/27 08:32:27;;;;;;;15.10;6.37;;;4.40;74.70;;;;;;5032499;28;20447;-50
2022/02/27 08:34:54;;;;;;;11.90;6.43;;;4.60;74.30;;;;;;5030808;28;20451;-50
2022/02/27 08:37:21;;;;;;;10.90;5.50;;;4.70;73.80;;;;;;5033467;28;20939;-51
2022/02/27 08:39:48;;;;;;;11.70;6.50;;;4.80;73.20;;;;;;5024872;28;20494;-51
2022/02/27 08:42:15;;;;;;;7.63;5.50;;;5.00;72.50;;;;;;5029912;28;20451;-51
2022/02/27 08:44:42;;;;;;;7.63;5.50;;;5.10;72.50;;;;;;5026977;28;20490;-51
2022/02/27 08:47:09;;;;;;;14.43;5.43;;;5.20;72.10;;;;;;5024187;28;20460;-51
2022/02/27 08:49:36;;;;;;;10.90;5.33;;;5.30;71.60;;;;;;5040436;28;20780;-51
2022/02/27 08:52:03;;;;;;;15.17;6.17;;;5.40;71.10;;;;;;5025797;28;20656;-51
2022/02/27 08:54:30;;;;;;;9.97;5.70;;;5.40;70.90;;;;;;5027065;28;21111;-50
2022/02/27 08:56:57;;;;;;;10.60;5.67;;;5.50;70.20;;;;;;5028834;28;20444;-50
2022/02/27 08:59:23;;;;;;;6.60;5.33;;;5.60;70.00;;;;;;5029800;28;20463;-50
2022/02/27 09:01:50;;;;;;;8.23;5.20;;;5.70;69.60;;;;;;5031511;28;20545;-50
2022/02/27 09:04:17;;;;;;;9.97;5.90;;;5.60;69.70;;;;;;5020684;28;20491;-51
2022/02/27 09:06:45;;;;;;;9.37;5.90;;;5.60;69.50;;;;;;5025249;28;20460;-51
2022/02/27 09:09:12;;;;;;;11.97;5.40;;;5.60;69.70;;;;;;5028404;28;20460;-51
2022/02/27 09:11:44;;;;;;;11.83;5.70;;;5.60;69.80;;;;;;5024696;28;20528;-51
2022/02/27 09:14:11;;;;;;;10.00;4.77;;;5.60;69.90;;;;;;5031872;28;20534;-51
2022/02/27 09:16:38;;;;;;;8.43;5.00;;;5.60;69.70;;;;;;5028777;28;20509;-50
2022/02/27 09:19:05;;;;;;;9.03;5.37;;;5.60;69.90;;;;;;5014652;28;20576;-51
2022/02/27 09:21:32;;;;;;;11.70;6.00;;;5.70;69.80;;;;;;5026051;28;20468;-50
2022/02/27 09:23:58;;;;;;;10.00;5.73;;;5.80;69.60;;;;;;5030209;28;20522;-50
2022/02/27 09:26:25;;;;;;;8.10;5.17;;;5.80;69.40;;;;;;5020514;28;20457;-50
2022/02/27 09:28:58;;;;;;;11.17;4.90;;;5.80;69.20;;;;;;5034634;28;20454;-50
2022/02/27 09:31:25;;;;;;;10.00;5.67;;;5.80;69.10;;;;;;5017680;28;20447;-50
2022/02/27 09:33:52;;;;;;;6.97;5.30;;;5.90;69.20;;;;;;5021614;28;20451;-50
2022/02/27 09:36:19;;;;;;;11.00;5.73;;;5.90;69.20;;;;;;5031856;28;20471;-51
2022/02/27 09:38:46;;;;;;;8.40;5.57;;;6.00;69.30;;;;;;5034031;28;21013;-51
2022/02/27 09:41:12;;;;;;;6.77;5.43;;;6.10;68.70;;;;;;5031213;28;20494;-50
2022/02/27 09:43:40;;;;;;;13.33;5.73;;;6.10;68.40;;;;;;5028543;28;20571;-50
2022/02/27 09:46:07;;;;;;;8.43;5.93;;;6.20;68.30;;;;;;5035081;28;20483;-51
2022/02/27 09:48:35;;;;;;;12.83;6.40;;;6.20;68.20;;;;;;5030412;28;20474;-51
2022/02/27 09:51:02;;;;;;;12.80;6.17;;;6.30;68.10;;;;;;5031821;28;20543;-51
2022/02/27 09:53:29;;;;;;;12.90;5.90;;;6.40;68.00;;;;;;5028108;28;21321;-51
2022/02/27 09:55:56;;;;;;;9.10;5.80;;;6.60;67.60;;;;;;5030069;28;20538;-51
2022/02/27 09:58:23;;;;;;;12.53;6.43;;;6.70;66.70;;;;;;5027702;28;20762;-50
2022/02/27 10:00:50;;;;;;;8.40;5.80;;;6.80;67.10;;;;;;5041033;28;20457;-51
2022/02/27 10:03:17;;;;;;;6.60;5.73;;;7.00;66.30;;;;;;5031272;28;20470;-51
2022/02/27 10:05:46;;;;;;;11.00;5.23;;;7.10;65.70;;;;;;5041206;28;20664;-51
2022/02/27 10:08:14;;;;;;;8.97;5.67;;;7.20;65.10;;;;;;5010778;28;20548;-51
2022/02/27 10:10:57;;;;;;;9.23;4.33;;;7.40;64.70;;;;;;5030451;28;20452;-51
2022/02/27 10:13:37;;;;;;;10.37;6.00;;;7.50;63.90;;;;;;5024423;28;20527;-51
2022/02/27 10:16:08;;;;;;;6.93;5.23;;;7.60;62.90;;;;;;5024848;28;20501;-51
2022/02/27 10:18:39;;;;;;;8.47;4.87;;;7.90;62.20;;;;;;5026695;28;20511;-51
2022/02/27 10:21:24;;;;;;;8.67;4.40;;;8.00;61.90;;;;;;5025980;28;20501;-51
2022/02/27 10:24:14;;;;;;;8.93;6.43;;;8.30;61.20;;;;;;5032131;28;20479;-52
2022/02/27 10:26:43;;;;;;;6.97;4.60;;;8.50;60.40;;;;;;5028359;28;20554;-51
2022/02/27 10:29:14;;;;;;;6.53;4.43;;;8.70;59.80;;;;;;5026956;28;20439;-51
2022/02/27 10:31:44;;;;;;;8.13;4.97;;;8.90;58.60;;;;;;5013164;28;20447;-52
2022/02/27 10:34:11;;;;;;;6.40;5.13;;;9.10;57.50;;;;;;5029762;28;20541;-52
2022/02/27 10:36:38;;;;;;;7.67;5.03;;;9.40;56.90;;;;;;5027847;28;20464;-52
2022/02/27 10:39:05;;;;;;;7.30;5.03;;;9.50;56.50;;;;;;5024455;28;21090;-52
2022/02/27 10:41:39;;;;;;;6.60;5.70;;;9.80;56.30;;;;;;5012096;28;20462;-51
2022/02/27 10:44:12;;;;;;;6.50;4.87;;;10.00;55.70;;;;;;5026433;28;20577;-52
2022/02/27 10:46:41;;;;;;;5.93;4.23;;;10.20;55.20;;;;;;5041065;28;20506;-51
2022/02/27 10:49:07;;;;;;;12.20;4.10;;;10.30;54.40;;;;;;5028900;28;20456;-52
2022/02/27 10:51:35;;;;;;;9.83;4.93;;;10.40;53.30;;;;;;5025874;28;20485;-51
2022/02/27 10:54:02;;;;;;;8.00;5.03;;;10.40;53.30;;;;;;5045685;28;20455;-52
2022/02/27 10:56:37;;;;;;;4.63;4.23;;;10.50;52.80;;;;;;5014532;28;20474;-51
2022/02/27 10:59:13;;;;;;;10.07;5.30;;;10.50;52.40;;;;;;5031508;28;20563;-51
2022/02/27 11:01:40;;;;;;;4.60;3.97;;;10.60;52.10;;;;;;5027021;28;21165;-51
2022/02/27 11:04:11;;;;;;;5.73;3.97;;;10.60;52.00;;;;;;5031244;28;20478;-51
2022/02/27 11:06:37;;;;;;;6.37;4.90;;;10.70;52.20;;;;;;5030498;28;20566;-51
2022/02/27 11:09:04;;;;;;;4.73;4.20;;;10.80;52.20;;;;;;5028327;28;20874;-52
2022/02/27 11:11:31;;;;;;;7.90;4.47;;;10.80;52.30;;;;;;5031118;28;20488;-52
2022/02/27 11:14:02;;;;;;;5.97;4.57;;;10.80;52.40;;;;;;5026656;28;20460;-51
2022/02/27 11:16:29;;;;;;;6.03;4.07;;;11.00;52.40;;;;;;5029934;28;20452;-52
2022/02/27 11:18:56;;;;;;;8.53;4.20;;;11.10;51.90;;;;;;5030131;28;20460;-52
2022/02/27 11:21:24;;;;;;;7.60;4.37;;;11.10;51.40;;;;;;5026311;28;20823;-52
2022/02/27 11:23:52;;;;;;;8.03;4.33;;;11.10;51.30;;;;;;5028106;28;20494;-52
2022/02/27 11:26:22;;;;;;;5.60;4.20;;;11.20;51.40;;;;;;5027520;28;21017;-52
2022/02/27 11:28:48;;;;;;;7.67;4.70;;;11.20;51.30;;;;;;5026398;28;20473;-52
2022/02/27 11:31:16;;;;;;;7.07;5.47;;;11.30;51.50;;;;;;5021317;28;20868;-51
2022/02/27 11:33:43;;;;;;;7.07;4.83;;;11.40;51.50;;;;;;5015402;28;20880;-52
2022/02/27 11:36:22;;;;;;;5.50;3.80;;;11.50;51.00;;;;;;5028357;28;20463;-52
2022/02/27 11:39:04;;;;;;;6.80;4.17;;;11.50;50.80;;;;;;5031409;28;20558;-52
2022/02/27 11:41:47;;;;;;;6.50;5.03;;;11.40;50.20;;;;;;5028314;28;21599;-52
2022/02/27 11:44:17;;;;;;;8.80;4.20;;;11.20;50.50;;;;;;5029446;28;20478;-52
2022/02/27 11:46:45;;;;;;;6.23;4.73;;;11.10;50.70;;;;;;5030748;28;20482;-52
2022/02/27 11:49:15;;;;;;;6.90;4.00;;;11.10;51.10;;;;;;5010459;28;20452;-53
2022/02/27 11:51:59;;;;;;;6.87;4.60;;;11.00;51.20;;;;;;5026959;28;20563;-51
2022/02/27 11:54:37;;;;;;;7.40;4.47;;;11.00;51.00;;;;;;5026132;28;20480;-51
2022/02/27 11:57:09;;;;;;;6.93;4.53;;;11.00;50.50;;;;;;5027944;28;20451;-51
2022/02/27 12:00:05;;;;;;;7.10;4.53;;;11.00;50.60;;;;;;5029419;28;20540;-51
2022/02/27 12:02:42;;;;;;;5.53;3.30;;;11.00;50.90;;;;;;5030421;28;20491;-51
2022/02/27 12:05:15;;;;;;;5.53;3.83;;;11.00;50.20;;;;;;5030811;28;21341;-52
2022/02/27 12:08:00;;;;;;;4.70;3.80;;;11.10;50.90;;;;;;5026257;28;20516;-52
2022/02/27 12:10:38;;;;;;;4.33;3.50;;;11.10;50.30;;;;;;5027849;28;20478;-52
2022/02/27 12:13:22;;;;;;;6.93;4.27;;;11.10;50.20;;;;;;5029865;28;20459;-51
2022/02/27 12:16:05;;;;;;;5.97;3.10;;;11.10;50.90;;;;;;5028337;28;20523;-51
2022/02/27 12:18:50;;;;;;;4.57;2.87;;;11.20;50.30;;;;;;5028654;28;20466;-51
2022/02/27 12:21:46;;;;;;;5.90;3.57;;;11.20;48.90;;;;;;5027809;28;20562;-51
2022/02/27 12:24:26;;;;;;;3.50;2.87;;;11.20;48.50;;;;;;5002505;28;20494;-51
2022/02/27 12:26:57;;;;;;;4.40;3.07;;;11.20;48.30;;;;;;5028616;28;20855;-51
2022/02/27 12:29:28;;;;;;;5.27;3.80;;;11.10;48.50;;;;;;5012837;28;20543;-51
2022/02/27 12:32:04;;;;;;;7.83;3.10;;;11.10;48.60;;;;;;5024027;28;20465;-51
2022/02/27 12:34:33;;;;;;;5.87;3.47;;;11.10;47.50;;;;;;5027056;28;20455;-51
2022/02/27 12:37:01;;;;;;;4.50;2.90;;;11.10;47.30;;;;;;5023050;28;20470;-52
2022/02/27 12:39:34;;;;;;;4.73;3.00;;;11.00;48.20;;;;;;5021618;28;20448;-51
2022/02/27 12:42:01;;;;;;;3.50;3.00;;;11.00;48.60;;;;;;5028838;28;20467;-51
2022/02/27 12:44:32;;;;;;;3.17;2.90;;;11.00;48.00;;;;;;5031775;28;20486;-51
2022/02/27 12:47:03;;;;;;;8.90;4.00;;;11.00;47.90;;;;;;5032672;28;20483;-51
2022/02/27 12:52:27;;;;;;;6.20;3.87;;;11.00;48.40;;;;;;5033494;28;20459;-51
2022/02/27 12:54:55;;;;;;;7.57;3.30;;;11.00;48.40;;;;;;5036490;28;20458;-51
2022/02/27 12:57:24;;;;;;;4.10;3.67;;;11.10;48.60;;;;;;5017435;28;20919;-52
2022/02/27 12:59:52;;;;;;;3.70;3.40;;;11.10;48.60;;;;;;5029413;28;20535;-52
2022/02/27 13:02:28;;;;;;;6.43;3.60;;;11.10;48.20;;;;;;5030408;28;20456;-52